sensor_id;sensor_type;location;lat;lon;timestamp;P1;durP1;ratioP1;P2;durP2;ratioP2
17784;SDS011;9016;53.582;10.062;2023-08-24T00:01:45;0.32;;;0.32;;
17784;SDS011;9016;53.582;10.062;2023-08-24T00:04:13;0.30;;;0.30;;
17784;SDS011;9016;53.582;10.062;2023-08-24T00:06:41;0.30;;;0.30;;
17784;SDS011;9016;53.582;10.062;2023-08-24T00:09:09;0.30;;;0.30;;
17784;SDS011;9016;53.582;10.062;2023-08-24T00:11:37;0.30;;;0.30;;
17784;SDS011;9016;53.582;10.062;2023-08-24T00:14:05;0.30;;;0.30;;
17784;SDS011;9016;53.582;10.062;2023-08-24T00:16:33;0.30;;;0.30;;
17784;SDS011;9016;53.582;10.062;2023-08-24T00:19:02;0.30;;;0.30;;
17784;SDS011;9016;53.582;10.062;2023-08-24T00:21:30;0.40;;;0.40;;
17784;SDS011;9016;53.582;10.062;2023-08-24T00:23:59;0.30;;;0.30;;
17784;SDS011;9016;53.582;10.062;2023-08-24T00:26:27;0.30;;;0.30;;
17784;SDS011;9016;53.582;10.062;2023-08-24T00:28:55;0.30;;;0.30;;
17784;SDS011;9016;53.582;10.062;2023-08-24T00:31:23;0.30;;;0.30;;
17784;SDS011;9016;53.582;10.062;2023-08-24T00:33:51;0.30;;;0.30;;
17784;SDS011;9016;53.582;10.062;2023-08-24T00:36:20;0.20;;;0.20;;
17784;SDS011;9016;53.582;10.062;2023-08-24T00:38:49;0.30;;;0.30;;
17784;SDS011;9016;53.582;10.062;2023-08-24T00:41:19;0.30;;;0.30;;
17784;SDS011;9016;53.582;10.062;2023-08-24T00:43:48;0.30;;;0.30;;
17784;SDS011;9016;53.582;10.062;2023-08-24T00:46:19;0.30;;;0.30;;
17784;SDS011;9016;53.582;10.062;2023-08-24T00:48:49;0.30;;;0.30;;
17784;SDS011;9016;53.582;10.062;2023-08-24T00:51:18;0.30;;;0.30;;
17784;SDS011;9016;53.582;10.062;2023-08-24T00:53:48;0.30;;;0.30;;
17784;SDS011;9016;53.582;10.062;2023-08-24T00:56:16;0.30;;;0.30;;
17784;SDS011;9016;53.582;10.062;2023-08-24T00:58:46;0.30;;;0.30;;
17784;SDS011;9016;53.582;10.062;2023-08-24T01:01:18;0.32;;;0.32;;
17784;SDS011;9016;53.582;10.062;2023-08-24T01:03:46;0.30;;;0.30;;
17784;SDS011;9016;53.582;10.062;2023-08-24T01:06:14;0.30;;;0.30;;
17784;SDS011;9016;53.582;10.062;2023-08-24T01:08:45;0.30;;;0.30;;
17784;SDS011;9016;53.582;10.062;2023-08-24T01:11:16;0.30;;;0.30;;
17784;SDS011;9016;53.582;10.062;2023-08-24T01:13:55;0.30;;;0.30;;
17784;SDS011;9016;53.582;10.062;2023-08-24T01:16:32;0.38;;;0.38;;
17784;SDS011;9016;53.582;10.062;2023-08-24T01:19:07;0.30;;;0.30;;
17784;SDS011;9016;53.582;10.062;2023-08-24T01:21:46;0.30;;;0.30;;
17784;SDS011;9016;53.582;10.062;2023-08-24T01:24:17;0.30;;;0.30;;
17784;SDS011;9016;53.582;10.062;2023-08-24T01:26:56;0.30;;;0.30;;
17784;SDS011;9016;53.582;10.062;2023-08-24T01:29:24;0.30;;;0.30;;
17784;SDS011;9016;53.582;10.062;2023-08-24T01:31:52;0.30;;;0.30;;
17784;SDS011;9016;53.582;10.062;2023-08-24T01:34:21;0.30;;;0.30;;
17784;SDS011;9016;53.582;10.062;2023-08-24T01:36:49;0.40;;;0.40;;
17784;SDS011;9016;53.582;10.062;2023-08-24T01:39:19;0.20;;;0.20;;
17784;SDS011;9016;53.582;10.062;2023-08-24T01:41:59;0.30;;;0.30;;
17784;SDS011;9016;53.582;10.062;2023-08-24T01:44:29;0.30;;;0.30;;
17784;SDS011;9016;53.582;10.062;2023-08-24T01:47:01;0.30;;;0.30;;
17784;SDS011;9016;53.582;10.062;2023-08-24T01:49:32;0.30;;;0.30;;
17784;SDS011;9016;53.582;10.062;2023-08-24T01:52:01;0.30;;;0.30;;
17784;SDS011;9016;53.582;10.062;2023-08-24T01:54:31;0.30;;;0.30;;
17784;SDS011;9016;53.582;10.062;2023-08-24T01:57:05;0.30;;;0.30;;
17784;SDS011;9016;53.582;10.062;2023-08-24T01:59:35;0.30;;;0.30;;
17784;SDS011;9016;53.582;10.062;2023-08-24T02:02:03;0.30;;;0.30;;
17784;SDS011;9016;53.582;10.062;2023-08-24T02:04:31;0.30;;;0.30;;
17784;SDS011;9016;53.582;10.062;2023-08-24T02:06:59;0.30;;;0.30;;
17784;SDS011;9016;53.582;10.062;2023-08-24T02:09:30;0.30;;;0.30;;
17784;SDS011;9016;53.582;10.062;2023-08-24T02:11:58;0.30;;;0.30;;
17784;SDS011;9016;53.582;10.062;2023-08-24T02:14:28;0.30;;;0.30;;
17784;SDS011;9016;53.582;10.062;2023-08-24T02:16:56;0.30;;;0.30;;
17784;SDS011;9016;53.582;10.062;2023-08-24T02:19:24;0.30;;;0.30;;
17784;SDS011;9016;53.582;10.062;2023-08-24T02:21:52;0.35;;;0.35;;
17784;SDS011;9016;53.582;10.062;2023-08-24T02:24:20;0.20;;;0.20;;
17784;SDS011;9016;53.582;10.062;2023-08-24T02:26:48;0.30;;;0.30;;
17784;SDS011;9016;53.582;10.062;2023-08-24T02:29:16;0.30;;;0.30;;
17784;SDS011;9016;53.582;10.062;2023-08-24T02:31:45;0.30;;;0.30;;
17784;SDS011;9016;53.582;10.062;2023-08-24T02:34:13;0.35;;;0.35;;
17784;SDS011;9016;53.582;10.062;2023-08-24T02:36:44;0.30;;;0.30;;
17784;SDS011;9016;53.582;10.062;2023-08-24T02:39:12;0.30;;;0.30;;
17784;SDS011;9016;53.582;10.062;2023-08-24T02:41:40;0.30;;;0.30;;
17784;SDS011;9016;53.582;10.062;2023-08-24T02:44:08;0.30;;;0.30;;
17784;SDS011;9016;53.582;10.062;2023-08-24T02:46:38;0.30;;;0.30;;
17784;SDS011;9016;53.582;10.062;2023-08-24T02:49:07;0.30;;;0.30;;
17784;SDS011;9016;53.582;10.062;2023-08-24T02:51:35;0.40;;;0.40;;
17784;SDS011;9016;53.582;10.062;2023-08-24T02:54:04;0.30;;;0.30;;
17784;SDS011;9016;53.582;10.062;2023-08-24T02:56:32;0.30;;;0.30;;
17784;SDS011;9016;53.582;10.062;2023-08-24T02:59:00;0.30;;;0.30;;
17784;SDS011;9016;53.582;10.062;2023-08-24T03:01:28;0.30;;;0.30;;
17784;SDS011;9016;53.582;10.062;2023-08-24T03:03:56;0.30;;;0.30;;
17784;SDS011;9016;53.582;10.062;2023-08-24T03:06:28;0.30;;;0.30;;
17784;SDS011;9016;53.582;10.062;2023-08-24T03:08:56;0.30;;;0.30;;
17784;SDS011;9016;53.582;10.062;2023-08-24T03:11:24;0.30;;;0.30;;
17784;SDS011;9016;53.582;10.062;2023-08-24T03:13:52;0.32;;;0.32;;
17784;SDS011;9016;53.582;10.062;2023-08-24T03:16:20;0.30;;;0.30;;
17784;SDS011;9016;53.582;10.062;2023-08-24T03:18:49;0.20;;;0.20;;
17784;SDS011;9016;53.582;10.062;2023-08-24T03:21:17;0.30;;;0.30;;
17784;SDS011;9016;53.582;10.062;2023-08-24T03:23:46;0.30;;;0.30;;
17784;SDS011;9016;53.582;10.062;2023-08-24T03:26:14;0.30;;;0.30;;
17784;SDS011;9016;53.582;10.062;2023-08-24T03:28:43;0.20;;;0.20;;
17784;SDS011;9016;53.582;10.062;2023-08-24T03:31:14;0.30;;;0.30;;
17784;SDS011;9016;53.582;10.062;2023-08-24T03:33:42;0.30;;;0.30;;
17784;SDS011;9016;53.582;10.062;2023-08-24T03:36:14;0.30;;;0.30;;
17784;SDS011;9016;53.582;10.062;2023-08-24T03:38:42;0.30;;;0.30;;
17784;SDS011;9016;53.582;10.062;2023-08-24T03:41:11;0.30;;;0.30;;
17784;SDS011;9016;53.582;10.062;2023-08-24T03:43:43;0.30;;;0.30;;
17784;SDS011;9016;53.582;10.062;2023-08-24T03:46:14;0.30;;;0.30;;
17784;SDS011;9016;53.582;10.062;2023-08-24T03:48:42;0.30;;;0.30;;
17784;SDS011;9016;53.582;10.062;2023-08-24T03:51:10;0.30;;;0.30;;
17784;SDS011;9016;53.582;10.062;2023-08-24T03:53:38;0.30;;;0.30;;
17784;SDS011;9016;53.582;10.062;2023-08-24T03:56:05;0.30;;;0.30;;
17784;SDS011;9016;53.582;10.062;2023-08-24T03:58:35;0.35;;;0.35;;
17784;SDS011;9016;53.582;10.062;2023-08-24T04:01:03;0.30;;;0.30;;
17784;SDS011;9016;53.582;10.062;2023-08-24T04:03:33;0.30;;;0.30;;
17784;SDS011;9016;53.582;10.062;2023-08-24T04:06:01;0.30;;;0.30;;
17784;SDS011;9016;53.582;10.062;2023-08-24T04:08:32;0.28;;;0.28;;
17784;SDS011;9016;53.582;10.062;2023-08-24T04:11:00;0.25;;;0.25;;
17784;SDS011;9016;53.582;10.062;2023-08-24T04:13:28;0.20;;;0.20;;
17784;SDS011;9016;53.582;10.062;2023-08-24T04:15:57;0.30;;;0.30;;
17784;SDS011;9016;53.582;10.062;2023-08-24T04:18:25;0.30;;;0.30;;
17784;SDS011;9016;53.582;10.062;2023-08-24T04:20:53;0.20;;;0.20;;
17784;SDS011;9016;53.582;10.062;2023-08-24T04:23:23;0.28;;;0.28;;
17784;SDS011;9016;53.582;10.062;2023-08-24T04:25:53;0.30;;;0.30;;
17784;SDS011;9016;53.582;10.062;2023-08-24T04:28:21;0.30;;;0.30;;
17784;SDS011;9016;53.582;10.062;2023-08-24T04:30:50;0.30;;;0.30;;
17784;SDS011;9016;53.582;10.062;2023-08-24T04:33:20;0.30;;;0.30;;
17784;SDS011;9016;53.582;10.062;2023-08-24T04:35:48;0.30;;;0.30;;
17784;SDS011;9016;53.582;10.062;2023-08-24T04:38:16;0.30;;;0.30;;
17784;SDS011;9016;53.582;10.062;2023-08-24T04:40:45;0.30;;;0.30;;
17784;SDS011;9016;53.582;10.062;2023-08-24T04:43:15;0.30;;;0.30;;
17784;SDS011;9016;53.582;10.062;2023-08-24T04:45:45;0.30;;;0.30;;
17784;SDS011;9016;53.582;10.062;2023-08-24T04:48:14;0.30;;;0.30;;
17784;SDS011;9016;53.582;10.062;2023-08-24T04:50:44;0.30;;;0.30;;
17784;SDS011;9016;53.582;10.062;2023-08-24T04:53:13;0.30;;;0.30;;
17784;SDS011;9016;53.582;10.062;2023-08-24T04:55:42;0.30;;;0.30;;
17784;SDS011;9016;53.582;10.062;2023-08-24T04:58:10;0.30;;;0.30;;
17784;SDS011;9016;53.582;10.062;2023-08-24T05:00:39;0.25;;;0.25;;
17784;SDS011;9016;53.582;10.062;2023-08-24T05:03:07;0.30;;;0.30;;
17784;SDS011;9016;53.582;10.062;2023-08-24T05:05:37;0.30;;;0.30;;
17784;SDS011;9016;53.582;10.062;2023-08-24T05:08:08;0.30;;;0.30;;
17784;SDS011;9016;53.582;10.062;2023-08-24T05:10:38;0.30;;;0.30;;
17784;SDS011;9016;53.582;10.062;2023-08-24T05:13:07;0.30;;;0.30;;
17784;SDS011;9016;53.582;10.062;2023-08-24T05:15:35;0.30;;;0.30;;
17784;SDS011;9016;53.582;10.062;2023-08-24T05:18:04;0.30;;;0.30;;
17784;SDS011;9016;53.582;10.062;2023-08-24T05:20:32;0.30;;;0.30;;
17784;SDS011;9016;53.582;10.062;2023-08-24T05:23:00;0.30;;;0.30;;
17784;SDS011;9016;53.582;10.062;2023-08-24T05:25:29;0.30;;;0.30;;
17784;SDS011;9016;53.582;10.062;2023-08-24T05:27:57;0.35;;;0.35;;
17784;SDS011;9016;53.582;10.062;2023-08-24T05:30:25;0.30;;;0.30;;
17784;SDS011;9016;53.582;10.062;2023-08-24T05:32:55;0.30;;;0.30;;
17784;SDS011;9016;53.582;10.062;2023-08-24T05:35:23;0.30;;;0.30;;
17784;SDS011;9016;53.582;10.062;2023-08-24T05:37:53;0.30;;;0.30;;
17784;SDS011;9016;53.582;10.062;2023-08-24T05:40:22;0.30;;;0.30;;
17784;SDS011;9016;53.582;10.062;2023-08-24T05:42:51;0.30;;;0.30;;
17784;SDS011;9016;53.582;10.062;2023-08-24T05:45:19;0.20;;;0.20;;
17784;SDS011;9016;53.582;10.062;2023-08-24T05:47:51;0.30;;;0.30;;
17784;SDS011;9016;53.582;10.062;2023-08-24T05:50:20;0.30;;;0.30;;
17784;SDS011;9016;53.582;10.062;2023-08-24T05:52:48;0.30;;;0.30;;
17784;SDS011;9016;53.582;10.062;2023-08-24T05:55:16;0.20;;;0.20;;
17784;SDS011;9016;53.582;10.062;2023-08-24T05:57:44;0.30;;;0.30;;
17784;SDS011;9016;53.582;10.062;2023-08-24T06:00:14;0.30;;;0.30;;
17784;SDS011;9016;53.582;10.062;2023-08-24T06:02:42;0.30;;;0.30;;
17784;SDS011;9016;53.582;10.062;2023-08-24T06:05:10;0.30;;;0.30;;
17784;SDS011;9016;53.582;10.062;2023-08-24T06:07:38;0.20;;;0.20;;
17784;SDS011;9016;53.582;10.062;2023-08-24T06:10:07;0.30;;;0.30;;
17784;SDS011;9016;53.582;10.062;2023-08-24T06:12:35;0.30;;;0.30;;
17784;SDS011;9016;53.582;10.062;2023-08-24T06:15:04;0.20;;;0.20;;
17784;SDS011;9016;53.582;10.062;2023-08-24T06:17:37;0.30;;;0.30;;
17784;SDS011;9016;53.582;10.062;2023-08-24T06:20:05;0.30;;;0.30;;
17784;SDS011;9016;53.582;10.062;2023-08-24T06:22:37;0.30;;;0.30;;
17784;SDS011;9016;53.582;10.062;2023-08-24T06:25:05;0.30;;;0.30;;
17784;SDS011;9016;53.582;10.062;2023-08-24T06:27:35;0.30;;;0.30;;
17784;SDS011;9016;53.582;10.062;2023-08-24T06:30:04;0.30;;;0.30;;
17784;SDS011;9016;53.582;10.062;2023-08-24T06:32:33;0.30;;;0.30;;
17784;SDS011;9016;53.582;10.062;2023-08-24T06:35:02;0.30;;;0.30;;
17784;SDS011;9016;53.582;10.062;2023-08-24T06:37:32;0.30;;;0.30;;
17784;SDS011;9016;53.582;10.062;2023-08-24T06:40:00;0.30;;;0.30;;
17784;SDS011;9016;53.582;10.062;2023-08-24T06:42:30;0.20;;;0.20;;
17784;SDS011;9016;53.582;10.062;2023-08-24T06:44:58;0.30;;;0.30;;
17784;SDS011;9016;53.582;10.062;2023-08-24T06:47:26;0.30;;;0.30;;
17784;SDS011;9016;53.582;10.062;2023-08-24T06:49:54;0.30;;;0.30;;
17784;SDS011;9016;53.582;10.062;2023-08-24T06:52:23;0.30;;;0.30;;
17784;SDS011;9016;53.582;10.062;2023-08-24T06:54:51;0.30;;;0.30;;
17784;SDS011;9016;53.582;10.062;2023-08-24T06:57:22;0.30;;;0.30;;
17784;SDS011;9016;53.582;10.062;2023-08-24T06:59:50;0.30;;;0.30;;
17784;SDS011;9016;53.582;10.062;2023-08-24T07:02:18;0.30;;;0.30;;
17784;SDS011;9016;53.582;10.062;2023-08-24T07:04:46;0.30;;;0.30;;
17784;SDS011;9016;53.582;10.062;2023-08-24T07:07:15;0.30;;;0.30;;
17784;SDS011;9016;53.582;10.062;2023-08-24T07:09:44;0.50;;;0.50;;
17784;SDS011;9016;53.582;10.062;2023-08-24T07:12:12;0.50;;;0.50;;
17784;SDS011;9016;53.582;10.062;2023-08-24T07:14:40;0.60;;;0.60;;
17784;SDS011;9016;53.582;10.062;2023-08-24T07:17:08;0.60;;;0.60;;
17784;SDS011;9016;53.582;10.062;2023-08-24T07:19:36;0.60;;;0.60;;
17784;SDS011;9016;53.582;10.062;2023-08-24T07:22:04;0.60;;;0.60;;
17784;SDS011;9016;53.582;10.062;2023-08-24T07:24:32;0.70;;;0.70;;
17784;SDS011;9016;53.582;10.062;2023-08-24T07:27:12;0.70;;;0.70;;
17784;SDS011;9016;53.582;10.062;2023-08-24T07:29:40;0.60;;;0.60;;
17784;SDS011;9016;53.582;10.062;2023-08-24T07:32:08;0.70;;;0.70;;
17784;SDS011;9016;53.582;10.062;2023-08-24T07:34:37;0.70;;;0.70;;
17784;SDS011;9016;53.582;10.062;2023-08-24T07:37:05;0.70;;;0.70;;
17784;SDS011;9016;53.582;10.062;2023-08-24T07:39:33;0.70;;;0.70;;
17784;SDS011;9016;53.582;10.062;2023-08-24T07:42:01;0.73;;;0.73;;
17784;SDS011;9016;53.582;10.062;2023-08-24T07:44:30;0.70;;;0.70;;
17784;SDS011;9016;53.582;10.062;2023-08-24T07:46:58;0.70;;;0.70;;
17784;SDS011;9016;53.582;10.062;2023-08-24T07:49:26;0.70;;;0.70;;
17784;SDS011;9016;53.582;10.062;2023-08-24T07:51:54;0.77;;;0.77;;
17784;SDS011;9016;53.582;10.062;2023-08-24T07:54:24;0.70;;;0.70;;
17784;SDS011;9016;53.582;10.062;2023-08-24T07:56:52;0.80;;;0.80;;
17784;SDS011;9016;53.582;10.062;2023-08-24T07:59:20;0.80;;;0.80;;
17784;SDS011;9016;53.582;10.062;2023-08-24T08:01:49;0.88;;;0.88;;
17784;SDS011;9016;53.582;10.062;2023-08-24T08:04:17;0.80;;;0.80;;
17784;SDS011;9016;53.582;10.062;2023-08-24T08:06:45;0.73;;;0.73;;
17784;SDS011;9016;53.582;10.062;2023-08-24T08:09:13;0.80;;;0.80;;
17784;SDS011;9016;53.582;10.062;2023-08-24T08:11:42;0.80;;;0.80;;
17784;SDS011;9016;53.582;10.062;2023-08-24T08:14:12;0.70;;;0.70;;
17784;SDS011;9016;53.582;10.062;2023-08-24T08:16:40;0.73;;;0.73;;
17784;SDS011;9016;53.582;10.062;2023-08-24T08:19:09;0.90;;;0.90;;
17784;SDS011;9016;53.582;10.062;2023-08-24T08:21:37;0.80;;;0.80;;
17784;SDS011;9016;53.582;10.062;2023-08-24T08:24:05;0.82;;;0.82;;
17784;SDS011;9016;53.582;10.062;2023-08-24T08:26:33;0.80;;;0.80;;
17784;SDS011;9016;53.582;10.062;2023-08-24T08:29:01;0.80;;;0.80;;
17784;SDS011;9016;53.582;10.062;2023-08-24T08:31:29;0.70;;;0.70;;
17784;SDS011;9016;53.582;10.062;2023-08-24T08:33:57;0.85;;;0.85;;
17784;SDS011;9016;53.582;10.062;2023-08-24T08:36:27;0.90;;;0.90;;
17784;SDS011;9016;53.582;10.062;2023-08-24T08:38:55;0.80;;;0.80;;
17784;SDS011;9016;53.582;10.062;2023-08-24T08:41:22;0.90;;;0.90;;
17784;SDS011;9016;53.582;10.062;2023-08-24T08:43:55;0.75;;;0.75;;
17784;SDS011;9016;53.582;10.062;2023-08-24T08:46:23;0.80;;;0.80;;
17784;SDS011;9016;53.582;10.062;2023-08-24T08:48:51;0.88;;;0.88;;
17784;SDS011;9016;53.582;10.062;2023-08-24T08:51:20;0.80;;;0.80;;
17784;SDS011;9016;53.582;10.062;2023-08-24T08:53:50;0.88;;;0.88;;
17784;SDS011;9016;53.582;10.062;2023-08-24T08:56:17;0.80;;;0.80;;
17784;SDS011;9016;53.582;10.062;2023-08-24T08:58:46;0.88;;;0.88;;
17784;SDS011;9016;53.582;10.062;2023-08-24T09:01:15;0.70;;;0.70;;
17784;SDS011;9016;53.582;10.062;2023-08-24T09:03:43;0.80;;;0.80;;
17784;SDS011;9016;53.582;10.062;2023-08-24T09:06:12;0.80;;;0.80;;
17784;SDS011;9016;53.582;10.062;2023-08-24T09:08:40;0.70;;;0.70;;
17784;SDS011;9016;53.582;10.062;2023-08-24T09:11:10;0.70;;;0.70;;
17784;SDS011;9016;53.582;10.062;2023-08-24T09:13:38;0.80;;;0.80;;
17784;SDS011;9016;53.582;10.062;2023-08-24T09:16:06;0.80;;;0.80;;
17784;SDS011;9016;53.582;10.062;2023-08-24T09:18:35;0.80;;;0.80;;
17784;SDS011;9016;53.582;10.062;2023-08-24T09:21:07;0.88;;;0.88;;
17784;SDS011;9016;53.582;10.062;2023-08-24T09:23:37;0.80;;;0.80;;
17784;SDS011;9016;53.582;10.062;2023-08-24T09:26:06;0.80;;;0.80;;
17784;SDS011;9016;53.582;10.062;2023-08-24T09:28:35;0.80;;;0.80;;
17784;SDS011;9016;53.582;10.062;2023-08-24T09:31:05;0.70;;;0.70;;
17784;SDS011;9016;53.582;10.062;2023-08-24T09:33:33;0.70;;;0.70;;
17784;SDS011;9016;53.582;10.062;2023-08-24T09:36:05;0.80;;;0.80;;
17784;SDS011;9016;53.582;10.062;2023-08-24T09:38:33;0.80;;;0.80;;
17784;SDS011;9016;53.582;10.062;2023-08-24T09:41:02;0.60;;;0.60;;
17784;SDS011;9016;53.582;10.062;2023-08-24T09:43:30;0.60;;;0.60;;
17784;SDS011;9016;53.582;10.062;2023-08-24T09:46:00;0.60;;;0.60;;
17784;SDS011;9016;53.582;10.062;2023-08-24T09:48:29;0.60;;;0.60;;
17784;SDS011;9016;53.582;10.062;2023-08-24T09:50:58;0.60;;;0.60;;
17784;SDS011;9016;53.582;10.062;2023-08-24T09:53:32;0.50;;;0.50;;
17784;SDS011;9016;53.582;10.062;2023-08-24T09:56:03;0.50;;;0.50;;
17784;SDS011;9016;53.582;10.062;2023-08-24T09:58:34;0.47;;;0.47;;
17784;SDS011;9016;53.582;10.062;2023-08-24T10:01:04;0.50;;;0.50;;
17784;SDS011;9016;53.582;10.062;2023-08-24T10:03:32;0.40;;;0.40;;
17784;SDS011;9016;53.582;10.062;2023-08-24T10:06:04;0.40;;;0.40;;
17784;SDS011;9016;53.582;10.062;2023-08-24T10:08:36;0.50;;;0.50;;
17784;SDS011;9016;53.582;10.062;2023-08-24T10:11:06;0.40;;;0.40;;
17784;SDS011;9016;53.582;10.062;2023-08-24T10:16:28;0.40;;;0.40;;
17784;SDS011;9016;53.582;10.062;2023-08-24T10:18:57;0.50;;;0.50;;
17784;SDS011;9016;53.582;10.062;2023-08-24T10:21:27;0.40;;;0.40;;
17784;SDS011;9016;53.582;10.062;2023-08-24T10:23:56;0.40;;;0.40;;
17784;SDS011;9016;53.582;10.062;2023-08-24T10:26:25;0.40;;;0.40;;
17784;SDS011;9016;53.582;10.062;2023-08-24T10:28:54;0.40;;;0.40;;
17784;SDS011;9016;53.582;10.062;2023-08-24T10:31:24;0.43;;;0.43;;
17784;SDS011;9016;53.582;10.062;2023-08-24T10:33:54;0.40;;;0.40;;
17784;SDS011;9016;53.582;10.062;2023-08-24T10:36:23;0.40;;;0.40;;
17784;SDS011;9016;53.582;10.062;2023-08-24T10:38:55;0.50;;;0.50;;
17784;SDS011;9016;53.582;10.062;2023-08-24T10:41:26;0.40;;;0.40;;
17784;SDS011;9016;53.582;10.062;2023-08-24T10:44:04;0.40;;;0.40;;
17784;SDS011;9016;53.582;10.062;2023-08-24T10:46:35;0.40;;;0.40;;
17784;SDS011;9016;53.582;10.062;2023-08-24T10:49:05;0.40;;;0.40;;
17784;SDS011;9016;53.582;10.062;2023-08-24T10:51:40;0.40;;;0.40;;
17784;SDS011;9016;53.582;10.062;2023-08-24T10:54:10;0.35;;;0.35;;
17784;SDS011;9016;53.582;10.062;2023-08-24T10:56:38;0.30;;;0.30;;
17784;SDS011;9016;53.582;10.062;2023-08-24T10:59:10;0.35;;;0.35;;
17784;SDS011;9016;53.582;10.062;2023-08-24T11:01:41;0.40;;;0.40;;
17784;SDS011;9016;53.582;10.062;2023-08-24T11:04:11;0.40;;;0.40;;
17784;SDS011;9016;53.582;10.062;2023-08-24T11:06:52;0.38;;;0.38;;
17784;SDS011;9016;53.582;10.062;2023-08-24T11:09:23;0.38;;;0.38;;
17784;SDS011;9016;53.582;10.062;2023-08-24T11:11:58;0.40;;;0.40;;
17784;SDS011;9016;53.582;10.062;2023-08-24T11:14:27;0.30;;;0.30;;
17784;SDS011;9016;53.582;10.062;2023-08-24T11:16:57;0.38;;;0.38;;
17784;SDS011;9016;53.582;10.062;2023-08-24T11:19:27;0.50;;;0.50;;
17784;SDS011;9016;53.582;10.062;2023-08-24T11:21:57;0.40;;;0.40;;
17784;SDS011;9016;53.582;10.062;2023-08-24T11:24:25;0.40;;;0.40;;
17784;SDS011;9016;53.582;10.062;2023-08-24T11:26:54;0.30;;;0.30;;
17784;SDS011;9016;53.582;10.062;2023-08-24T11:29:24;0.40;;;0.40;;
17784;SDS011;9016;53.582;10.062;2023-08-24T11:31:52;0.40;;;0.40;;
17784;SDS011;9016;53.582;10.062;2023-08-24T11:34:20;0.30;;;0.30;;
17784;SDS011;9016;53.582;10.062;2023-08-24T11:36:49;0.30;;;0.30;;
17784;SDS011;9016;53.582;10.062;2023-08-24T11:39:18;0.30;;;0.30;;
17784;SDS011;9016;53.582;10.062;2023-08-24T11:41:58;0.40;;;0.40;;
17784;SDS011;9016;53.582;10.062;2023-08-24T11:44:27;0.38;;;0.38;;
17784;SDS011;9016;53.582;10.062;2023-08-24T11:46:56;0.40;;;0.40;;
17784;SDS011;9016;53.582;10.062;2023-08-24T11:49:26;0.40;;;0.40;;
17784;SDS011;9016;53.582;10.062;2023-08-24T11:51:55;0.40;;;0.40;;
17784;SDS011;9016;53.582;10.062;2023-08-24T11:54:24;0.40;;;0.40;;
17784;SDS011;9016;53.582;10.062;2023-08-24T11:56:52;0.40;;;0.40;;
17784;SDS011;9016;53.582;10.062;2023-08-24T11:59:20;0.40;;;0.40;;
17784;SDS011;9016;53.582;10.062;2023-08-24T12:01:48;0.40;;;0.40;;
17784;SDS011;9016;53.582;10.062;2023-08-24T12:04:17;0.32;;;0.32;;
17784;SDS011;9016;53.582;10.062;2023-08-24T12:06:45;0.38;;;0.38;;
17784;SDS011;9016;53.582;10.062;2023-08-24T12:09:14;0.40;;;0.40;;
17784;SDS011;9016;53.582;10.062;2023-08-24T12:11:42;0.40;;;0.40;;
17784;SDS011;9016;53.582;10.062;2023-08-24T12:14:16;0.40;;;0.40;;
17784;SDS011;9016;53.582;10.062;2023-08-24T12:16:45;0.40;;;0.40;;
17784;SDS011;9016;53.582;10.062;2023-08-24T12:19:16;0.38;;;0.38;;
17784;SDS011;9016;53.582;10.062;2023-08-24T12:21:44;0.40;;;0.40;;
17784;SDS011;9016;53.582;10.062;2023-08-24T12:24:13;0.40;;;0.40;;
17784;SDS011;9016;53.582;10.062;2023-08-24T12:26:42;0.40;;;0.40;;
17784;SDS011;9016;53.582;10.062;2023-08-24T12:29:10;0.40;;;0.40;;
17784;SDS011;9016;53.582;10.062;2023-08-24T12:31:41;0.30;;;0.30;;
17784;SDS011;9016;53.582;10.062;2023-08-24T12:34:13;0.40;;;0.40;;
17784;SDS011;9016;53.582;10.062;2023-08-24T12:36:42;0.30;;;0.30;;
17784;SDS011;9016;53.582;10.062;2023-08-24T12:39:10;0.40;;;0.40;;
17784;SDS011;9016;53.582;10.062;2023-08-24T12:41:41;0.47;;;0.47;;
17784;SDS011;9016;53.582;10.062;2023-08-24T12:44:09;0.32;;;0.32;;
17784;SDS011;9016;53.582;10.062;2023-08-24T12:46:41;0.30;;;0.30;;
17784;SDS011;9016;53.582;10.062;2023-08-24T12:49:09;0.30;;;0.30;;
17784;SDS011;9016;53.582;10.062;2023-08-24T12:51:37;0.40;;;0.40;;
17784;SDS011;9016;53.582;10.062;2023-08-24T12:54:07;0.40;;;0.40;;
17784;SDS011;9016;53.582;10.062;2023-08-24T12:56:38;0.40;;;0.40;;
17784;SDS011;9016;53.582;10.062;2023-08-24T12:59:07;0.40;;;0.40;;
17784;SDS011;9016;53.582;10.062;2023-08-24T13:01:35;0.40;;;0.40;;
17784;SDS011;9016;53.582;10.062;2023-08-24T13:04:03;0.40;;;0.40;;
17784;SDS011;9016;53.582;10.062;2023-08-24T13:06:33;0.40;;;0.40;;
17784;SDS011;9016;53.582;10.062;2023-08-24T13:09:01;0.40;;;0.40;;
17784;SDS011;9016;53.582;10.062;2023-08-24T13:11:29;0.50;;;0.50;;
17784;SDS011;9016;53.582;10.062;2023-08-24T13:13:57;0.35;;;0.35;;
17784;SDS011;9016;53.582;10.062;2023-08-24T13:16:27;0.40;;;0.40;;
17784;SDS011;9016;53.582;10.062;2023-08-24T13:18:55;0.40;;;0.40;;
17784;SDS011;9016;53.582;10.062;2023-08-24T13:21:24;0.40;;;0.40;;
17784;SDS011;9016;53.582;10.062;2023-08-24T13:23:52;0.40;;;0.40;;
17784;SDS011;9016;53.582;10.062;2023-08-24T13:26:20;0.40;;;0.40;;
17784;SDS011;9016;53.582;10.062;2023-08-24T13:28:49;0.30;;;0.30;;
17784;SDS011;9016;53.582;10.062;2023-08-24T13:31:18;0.50;;;0.50;;
17784;SDS011;9016;53.582;10.062;2023-08-24T13:33:47;0.30;;;0.30;;
17784;SDS011;9016;53.582;10.062;2023-08-24T13:36:15;0.40;;;0.40;;
17784;SDS011;9016;53.582;10.062;2023-08-24T13:38:43;0.40;;;0.40;;
17784;SDS011;9016;53.582;10.062;2023-08-24T13:41:12;0.40;;;0.40;;
17784;SDS011;9016;53.582;10.062;2023-08-24T13:43:40;0.40;;;0.40;;
17784;SDS011;9016;53.582;10.062;2023-08-24T13:46:08;0.47;;;0.47;;
17784;SDS011;9016;53.582;10.062;2023-08-24T13:48:36;0.40;;;0.40;;
17784;SDS011;9016;53.582;10.062;2023-08-24T13:51:06;0.40;;;0.40;;
17784;SDS011;9016;53.582;10.062;2023-08-24T13:53:35;0.50;;;0.50;;
17784;SDS011;9016;53.582;10.062;2023-08-24T13:56:03;0.40;;;0.40;;
17784;SDS011;9016;53.582;10.062;2023-08-24T13:58:32;0.40;;;0.40;;
17784;SDS011;9016;53.582;10.062;2023-08-24T14:01:00;0.40;;;0.40;;
17784;SDS011;9016;53.582;10.062;2023-08-24T14:03:29;0.30;;;0.30;;
17784;SDS011;9016;53.582;10.062;2023-08-24T14:05:58;0.40;;;0.40;;
17784;SDS011;9016;53.582;10.062;2023-08-24T14:08:27;0.40;;;0.40;;
17784;SDS011;9016;53.582;10.062;2023-08-24T14:10:55;0.40;;;0.40;;
17784;SDS011;9016;53.582;10.062;2023-08-24T14:13:23;0.47;;;0.47;;
17784;SDS011;9016;53.582;10.062;2023-08-24T14:15:51;0.40;;;0.40;;
17784;SDS011;9016;53.582;10.062;2023-08-24T14:18:19;0.40;;;0.40;;
17784;SDS011;9016;53.582;10.062;2023-08-24T14:20:47;0.40;;;0.40;;
17784;SDS011;9016;53.582;10.062;2023-08-24T14:23:15;0.40;;;0.40;;
17784;SDS011;9016;53.582;10.062;2023-08-24T14:25:46;0.40;;;0.40;;
17784;SDS011;9016;53.582;10.062;2023-08-24T14:28:21;0.40;;;0.40;;
17784;SDS011;9016;53.582;10.062;2023-08-24T14:30:50;0.40;;;0.40;;
17784;SDS011;9016;53.582;10.062;2023-08-24T14:33:18;0.40;;;0.40;;
17784;SDS011;9016;53.582;10.062;2023-08-24T14:35:53;0.40;;;0.40;;
17784;SDS011;9016;53.582;10.062;2023-08-24T14:38:21;0.45;;;0.45;;
17784;SDS011;9016;53.582;10.062;2023-08-24T14:40:50;0.30;;;0.30;;
17784;SDS011;9016;53.582;10.062;2023-08-24T14:43:18;0.40;;;0.40;;
17784;SDS011;9016;53.582;10.062;2023-08-24T14:45:46;0.40;;;0.40;;
17784;SDS011;9016;53.582;10.062;2023-08-24T14:48:14;0.40;;;0.40;;
17784;SDS011;9016;53.582;10.062;2023-08-24T14:50:42;0.40;;;0.40;;
17784;SDS011;9016;53.582;10.062;2023-08-24T14:53:11;0.40;;;0.40;;
17784;SDS011;9016;53.582;10.062;2023-08-24T14:55:38;0.40;;;0.40;;
17784;SDS011;9016;53.582;10.062;2023-08-24T14:58:08;0.40;;;0.40;;
17784;SDS011;9016;53.582;10.062;2023-08-24T15:00:36;0.40;;;0.40;;
17784;SDS011;9016;53.582;10.062;2023-08-24T15:03:04;0.40;;;0.40;;